To NAV CANADA Home Page Login to a new session Search on AWWS site Feedback and Comments Disclaimer Vers la page française équivalente Tips FAQ What's new on the site To the Forecasts and Observations / NOTAM section To "File a Flight Plan" website Publications and other links Update of the User's profile FIC Telephone Numbers My Weather Data Folder Route Weather Data Regional Weather Data Local Weather Data To the Forecasts and Observations / NOTAM section
Request Generated 05/28/2016 at 23:54:26 UTC . Weather information available at that time is displayed.

METAR/TAF

MARYS HARBOUR/NL    (show WxCam)

METAR CYMH 282300Z AUTO 13005KT 9SM CLR 03/02 A3016 RMK SLP214=
METAR CYMH 282200Z AUTO 11006KT 9SM CLR 04/02 A3015 RMK SLP212=
METAR CYMH 282100Z AUTO 11009KT 9SM CLR 05/02 A3014 RMK SLP209=

TAF CYMH 281938Z 2820/2903 08012KT P6SM FEW080
BECMG 2821/2823 16006KT
RMK FCST BASED ON AUTO OBS. NXT FCST WILL BE ISSUED AT 290845Z=
Your time UTC time
Weather data provided by Environment Canada and NAV CANADA